sensor_id;sensor_type;location;lat;lon;timestamp;temperature;humidity
69503;SHT31;56704;54.242;12.442;2023-08-24T00:00:16;17.39;96.06
69503;SHT31;56704;54.242;12.442;2023-08-24T00:02:43;17.32;96.07
69503;SHT31;56704;54.242;12.442;2023-08-24T00:05:10;17.31;96.07
69503;SHT31;56704;54.242;12.442;2023-08-24T00:07:38;17.29;96.12
69503;SHT31;56704;54.242;12.442;2023-08-24T00:10:05;17.31;96.30
69503;SHT31;56704;54.242;12.442;2023-08-24T00:12:33;17.38;96.38
69503;SHT31;56704;54.242;12.442;2023-08-24T00:14:59;17.40;96.45
69503;SHT31;56704;54.242;12.442;2023-08-24T00:17:26;17.45;96.50
69503;SHT31;56704;54.242;12.442;2023-08-24T00:19:55;17.43;96.46
69503;SHT31;56704;54.242;12.442;2023-08-24T00:22:22;17.43;96.57
69503;SHT31;56704;54.242;12.442;2023-08-24T00:24:50;17.43;96.62
69503;SHT31;56704;54.242;12.442;2023-08-24T00:27:16;17.45;96.70
69503;SHT31;56704;54.242;12.442;2023-08-24T00:29:44;17.49;96.74
69503;SHT31;56704;54.242;12.442;2023-08-24T00:32:11;17.50;96.76
69503;SHT31;56704;54.242;12.442;2023-08-24T00:34:37;17.49;96.69
69503;SHT31;56704;54.242;12.442;2023-08-24T00:37:04;17.50;96.68
69503;SHT31;56704;54.242;12.442;2023-08-24T00:39:31;17.46;96.62
69503;SHT31;56704;54.242;12.442;2023-08-24T00:41:59;17.40;96.73
69503;SHT31;56704;54.242;12.442;2023-08-24T00:44:26;17.38;96.75
69503;SHT31;56704;54.242;12.442;2023-08-24T00:46:54;17.36;96.81
69503;SHT31;56704;54.242;12.442;2023-08-24T00:49:22;17.35;96.87
69503;SHT31;56704;54.242;12.442;2023-08-24T00:51:48;17.33;96.85
69503;SHT31;56704;54.242;12.442;2023-08-24T00:54:15;17.38;96.98
69503;SHT31;56704;54.242;12.442;2023-08-24T00:56:43;17.38;96.98
69503;SHT31;56704;54.242;12.442;2023-08-24T00:59:13;17.36;96.99
69503;SHT31;56704;54.242;12.442;2023-08-24T01:01:41;17.36;97.05
69503;SHT31;56704;54.242;12.442;2023-08-24T01:04:10;17.43;97.06
69503;SHT31;56704;54.242;12.442;2023-08-24T01:06:36;17.35;96.95
69503;SHT31;56704;54.242;12.442;2023-08-24T01:09:03;17.33;96.99
69503;SHT31;56704;54.242;12.442;2023-08-24T01:11:37;17.26;97.03
69503;SHT31;56704;54.242;12.442;2023-08-24T01:14:11;17.26;97.06
69503;SHT31;56704;54.242;12.442;2023-08-24T01:16:46;17.26;97.14
69503;SHT31;56704;54.242;12.442;2023-08-24T01:19:25;17.23;97.06
69503;SHT31;56704;54.242;12.442;2023-08-24T01:21:57;17.14;97.04
69503;SHT31;56704;54.242;12.442;2023-08-24T01:24:31;17.10;97.04
69503;SHT31;56704;54.242;12.442;2023-08-24T01:27:03;17.07;97.12
69503;SHT31;56704;54.242;12.442;2023-08-24T01:29:30;17.07;97.10
69503;SHT31;56704;54.242;12.442;2023-08-24T01:31:57;17.00;97.16
69503;SHT31;56704;54.242;12.442;2023-08-24T01:34:23;16.96;97.16
69503;SHT31;56704;54.242;12.442;2023-08-24T01:36:50;16.92;97.27
69503;SHT31;56704;54.242;12.442;2023-08-24T01:39:23;16.92;97.30
69503;SHT31;56704;54.242;12.442;2023-08-24T01:42:00;16.88;97.33
69503;SHT31;56704;54.242;12.442;2023-08-24T01:44:34;16.88;97.37
69503;SHT31;56704;54.242;12.442;2023-08-24T01:47:03;16.85;97.35
69503;SHT31;56704;54.242;12.442;2023-08-24T01:49:31;16.85;97.48
69503;SHT31;56704;54.242;12.442;2023-08-24T01:51:59;16.88;97.51
69503;SHT31;56704;54.242;12.442;2023-08-24T01:54:27;16.88;97.51
69503;SHT31;56704;54.242;12.442;2023-08-24T01:56:53;16.88;97.53
69503;SHT31;56704;54.242;12.442;2023-08-24T01:59:20;16.88;97.57
69503;SHT31;56704;54.242;12.442;2023-08-24T02:01:48;16.92;97.51
69503;SHT31;56704;54.242;12.442;2023-08-24T02:04:14;16.91;97.39
69503;SHT31;56704;54.242;12.442;2023-08-24T02:06:41;16.87;97.54
69503;SHT31;56704;54.242;12.442;2023-08-24T02:09:07;16.91;97.53
69503;SHT31;56704;54.242;12.442;2023-08-24T02:11:34;16.80;97.54
69503;SHT31;56704;54.242;12.442;2023-08-24T02:14:00;16.81;97.56
69503;SHT31;56704;54.242;12.442;2023-08-24T02:16:27;16.81;97.56
69503;SHT31;56704;54.242;12.442;2023-08-24T02:18:55;16.87;97.65
69503;SHT31;56704;54.242;12.442;2023-08-24T02:21:21;16.88;97.51
69503;SHT31;56704;54.242;12.442;2023-08-24T02:23:48;16.84;97.53
69503;SHT31;56704;54.242;12.442;2023-08-24T02:26:15;16.85;97.56
69503;SHT31;56704;54.242;12.442;2023-08-24T02:28:41;16.74;97.45
69503;SHT31;56704;54.242;12.442;2023-08-24T02:31:08;16.68;97.45
69503;SHT31;56704;54.242;12.442;2023-08-24T02:33:35;16.63;97.42
69503;SHT31;56704;54.242;12.442;2023-08-24T02:36:03;16.70;97.59
69503;SHT31;56704;54.242;12.442;2023-08-24T02:38:30;16.70;97.56
69503;SHT31;56704;54.242;12.442;2023-08-24T02:41:01;16.56;97.34
69503;SHT31;56704;54.242;12.442;2023-08-24T02:43:28;16.54;97.39
69503;SHT31;56704;54.242;12.442;2023-08-24T02:45:58;16.61;97.57
69503;SHT31;56704;54.242;12.442;2023-08-24T02:48:25;16.65;97.56
69503;SHT31;56704;54.242;12.442;2023-08-24T02:50:51;16.74;97.63
69503;SHT31;56704;54.242;12.442;2023-08-24T02:53:20;16.74;97.57
69503;SHT31;56704;54.242;12.442;2023-08-24T02:55:46;16.75;97.59
69503;SHT31;56704;54.242;12.442;2023-08-24T02:58:13;16.71;97.55
69503;SHT31;56704;54.242;12.442;2023-08-24T03:00:40;16.68;97.57
69503;SHT31;56704;54.242;12.442;2023-08-24T03:03:06;16.64;97.58
69503;SHT31;56704;54.242;12.442;2023-08-24T03:05:33;16.68;97.68
69503;SHT31;56704;54.242;12.442;2023-08-24T03:08:00;16.57;97.59
69503;SHT31;56704;54.242;12.442;2023-08-24T03:10:31;16.59;97.68
69503;SHT31;56704;54.242;12.442;2023-08-24T03:12:57;16.60;97.77
69503;SHT31;56704;54.242;12.442;2023-08-24T03:15:24;16.63;97.75
69503;SHT31;56704;54.242;12.442;2023-08-24T03:17:50;16.67;97.73
69503;SHT31;56704;54.242;12.442;2023-08-24T03:20:17;16.70;97.76
69503;SHT31;56704;54.242;12.442;2023-08-24T03:22:44;16.71;97.70
69503;SHT31;56704;54.242;12.442;2023-08-24T03:25:11;16.67;97.63
69503;SHT31;56704;54.242;12.442;2023-08-24T03:27:39;16.65;97.62
69503;SHT31;56704;54.242;12.442;2023-08-24T03:30:06;16.71;97.69
69503;SHT31;56704;54.242;12.442;2023-08-24T03:32:33;16.59;97.50
69503;SHT31;56704;54.242;12.442;2023-08-24T03:35:01;16.54;97.44
69503;SHT31;56704;54.242;12.442;2023-08-24T03:37:28;16.49;97.52
69503;SHT31;56704;54.242;12.442;2023-08-24T03:39:54;16.49;97.46
69503;SHT31;56704;54.242;12.442;2023-08-24T03:42:21;16.41;97.47
69503;SHT31;56704;54.242;12.442;2023-08-24T03:44:49;16.46;97.54
69503;SHT31;56704;54.242;12.442;2023-08-24T03:47:16;16.51;97.52
69503;SHT31;56704;54.242;12.442;2023-08-24T03:49:43;16.54;97.54
69503;SHT31;56704;54.242;12.442;2023-08-24T03:52:10;16.51;97.51
69503;SHT31;56704;54.242;12.442;2023-08-24T03:54:37;16.54;97.54
69503;SHT31;56704;54.242;12.442;2023-08-24T03:57:04;16.60;97.61
69503;SHT31;56704;54.242;12.442;2023-08-24T03:59:31;16.63;97.67
69503;SHT31;56704;54.242;12.442;2023-08-24T04:01:58;16.65;97.69
69503;SHT31;56704;54.242;12.442;2023-08-24T04:04:27;16.70;97.65
69503;SHT31;56704;54.242;12.442;2023-08-24T04:06:54;16.67;97.58
69503;SHT31;56704;54.242;12.442;2023-08-24T04:09:20;16.67;97.59
69503;SHT31;56704;54.242;12.442;2023-08-24T04:11:47;16.64;97.61
69503;SHT31;56704;54.242;12.442;2023-08-24T04:14:13;16.64;97.67
69503;SHT31;56704;54.242;12.442;2023-08-24T04:16:40;16.70;97.62
69503;SHT31;56704;54.242;12.442;2023-08-24T04:19:08;16.70;97.57
69503;SHT31;56704;54.242;12.442;2023-08-24T04:21:35;16.70;97.58
69503;SHT31;56704;54.242;12.442;2023-08-24T04:24:02;16.68;97.58
69503;SHT31;56704;54.242;12.442;2023-08-24T04:26:28;16.65;97.50
69503;SHT31;56704;54.242;12.442;2023-08-24T04:28:55;16.63;97.54
69503;SHT31;56704;54.242;12.442;2023-08-24T04:31:21;16.60;97.50
69503;SHT31;56704;54.242;12.442;2023-08-24T04:33:48;16.53;97.33
69503;SHT31;56704;54.242;12.442;2023-08-24T04:36:16;16.46;97.16
69503;SHT31;56704;54.242;12.442;2023-08-24T04:38:43;16.43;97.24
69503;SHT31;56704;54.242;12.442;2023-08-24T04:41:10;16.40;97.11
69503;SHT31;56704;54.242;12.442;2023-08-24T04:43:37;16.40;97.16
69503;SHT31;56704;54.242;12.442;2023-08-24T04:46:04;16.39;97.17
69503;SHT31;56704;54.242;12.442;2023-08-24T04:48:53;16.39;97.17
69503;SHT31;56704;54.242;12.442;2023-08-24T04:51:20;16.31;97.15
69503;SHT31;56704;54.242;12.442;2023-08-24T04:53:47;16.44;97.29
69503;SHT31;56704;54.242;12.442;2023-08-24T04:56:14;16.46;97.21
69503;SHT31;56704;54.242;12.442;2023-08-24T04:58:52;16.47;97.12
69503;SHT31;56704;54.242;12.442;2023-08-24T05:01:19;16.49;97.14
69503;SHT31;56704;54.242;12.442;2023-08-24T05:03:45;16.37;97.05
69503;SHT31;56704;54.242;12.442;2023-08-24T05:06:12;16.43;97.18
69503;SHT31;56704;54.242;12.442;2023-08-24T05:08:40;16.37;97.09
69503;SHT31;56704;54.242;12.442;2023-08-24T05:11:10;16.39;97.07
69503;SHT31;56704;54.242;12.442;2023-08-24T05:13:37;16.34;97.05
69503;SHT31;56704;54.242;12.442;2023-08-24T05:16:04;16.30;97.13
69503;SHT31;56704;54.242;12.442;2023-08-24T05:18:31;16.36;97.13
69503;SHT31;56704;54.242;12.442;2023-08-24T05:20:57;16.41;97.11
69503;SHT31;56704;54.242;12.442;2023-08-24T05:23:24;16.40;97.18
69503;SHT31;56704;54.242;12.442;2023-08-24T05:25:52;16.47;97.25
69503;SHT31;56704;54.242;12.442;2023-08-24T05:28:18;16.51;97.23
69503;SHT31;56704;54.242;12.442;2023-08-24T05:30:45;16.54;97.26
69503;SHT31;56704;54.242;12.442;2023-08-24T05:33:11;16.60;97.30
69503;SHT31;56704;54.242;12.442;2023-08-24T05:35:38;16.57;97.13
69503;SHT31;56704;54.242;12.442;2023-08-24T05:38:04;16.65;97.16
69503;SHT31;56704;54.242;12.442;2023-08-24T05:40:33;16.71;97.05
69503;SHT31;56704;54.242;12.442;2023-08-24T05:43:01;16.74;97.09
69503;SHT31;56704;54.242;12.442;2023-08-24T05:45:28;16.85;97.13
69503;SHT31;56704;54.242;12.442;2023-08-24T05:47:54;16.92;97.10
69503;SHT31;56704;54.242;12.442;2023-08-24T05:50:21;16.91;97.10
69503;SHT31;56704;54.242;12.442;2023-08-24T05:52:48;16.92;97.10
69503;SHT31;56704;54.242;12.442;2023-08-24T05:55:14;16.95;97.06
69503;SHT31;56704;54.242;12.442;2023-08-24T05:57:41;16.91;97.03
69503;SHT31;56704;54.242;12.442;2023-08-24T06:00:10;16.92;97.04
69503;SHT31;56704;54.242;12.442;2023-08-24T06:02:37;16.98;96.84
69503;SHT31;56704;54.242;12.442;2023-08-24T06:05:04;17.01;96.91
69503;SHT31;56704;54.242;12.442;2023-08-24T06:07:31;17.07;96.97
69503;SHT31;56704;54.242;12.442;2023-08-24T06:09:58;17.07;96.84
69503;SHT31;56704;54.242;12.442;2023-08-24T06:12:25;17.14;96.45
69503;SHT31;56704;54.242;12.442;2023-08-24T06:14:51;17.22;96.51
69503;SHT31;56704;54.242;12.442;2023-08-24T06:17:20;17.25;96.45
69503;SHT31;56704;54.242;12.442;2023-08-24T06:19:46;17.33;96.07
69503;SHT31;56704;54.242;12.442;2023-08-24T06:22:13;17.29;94.96
69503;SHT31;56704;54.242;12.442;2023-08-24T06:24:39;17.31;94.83
69503;SHT31;56704;54.242;12.442;2023-08-24T06:27:06;17.42;94.66
69503;SHT31;56704;54.242;12.442;2023-08-24T06:29:32;17.47;94.58
69503;SHT31;56704;54.242;12.442;2023-08-24T06:31:59;17.52;94.49
69503;SHT31;56704;54.242;12.442;2023-08-24T06:34:27;17.55;94.26
69503;SHT31;56704;54.242;12.442;2023-08-24T06:36:53;17.61;94.16
69503;SHT31;56704;54.242;12.442;2023-08-24T06:39:21;17.67;94.24
69503;SHT31;56704;54.242;12.442;2023-08-24T06:41:47;17.74;94.18
69503;SHT31;56704;54.242;12.442;2023-08-24T06:44:16;17.77;93.59
69503;SHT31;56704;54.242;12.442;2023-08-24T06:46:43;17.82;93.39
69503;SHT31;56704;54.242;12.442;2023-08-24T06:49:09;17.93;93.35
69503;SHT31;56704;54.242;12.442;2023-08-24T06:51:37;18.07;93.42
69503;SHT31;56704;54.242;12.442;2023-08-24T06:54:04;18.18;92.85
69503;SHT31;56704;54.242;12.442;2023-08-24T06:56:30;18.33;92.65
69503;SHT31;56704;54.242;12.442;2023-08-24T06:58:57;18.37;91.94
69503;SHT31;56704;54.242;12.442;2023-08-24T07:01:24;18.45;91.07
69503;SHT31;56704;54.242;12.442;2023-08-24T07:03:51;18.57;91.35
69503;SHT31;56704;54.242;12.442;2023-08-24T07:06:17;18.71;91.11
69503;SHT31;56704;54.242;12.442;2023-08-24T07:08:45;18.64;88.62
69503;SHT31;56704;54.242;12.442;2023-08-24T07:11:12;18.96;89.79
69503;SHT31;56704;54.242;12.442;2023-08-24T07:13:40;19.16;89.25
69503;SHT31;56704;54.242;12.442;2023-08-24T07:16:06;19.30;88.49
69503;SHT31;56704;54.242;12.442;2023-08-24T07:18:33;19.50;89.88
69503;SHT31;56704;54.242;12.442;2023-08-24T07:20:59;19.46;89.67
69503;SHT31;56704;54.242;12.442;2023-08-24T07:23:26;19.84;89.99
69503;SHT31;56704;54.242;12.442;2023-08-24T07:25:55;19.80;88.63
69503;SHT31;56704;54.242;12.442;2023-08-24T07:28:21;20.04;87.08
69503;SHT31;56704;54.242;12.442;2023-08-24T07:30:48;20.36;86.93
69503;SHT31;56704;54.242;12.442;2023-08-24T07:33:14;20.15;85.80
69503;SHT31;56704;54.242;12.442;2023-08-24T07:35:42;20.31;87.67
69503;SHT31;56704;54.242;12.442;2023-08-24T07:38:08;20.57;88.40
69503;SHT31;56704;54.242;12.442;2023-08-24T07:40:35;20.96;88.33
69503;SHT31;56704;54.242;12.442;2023-08-24T07:43:03;20.90;86.55
69503;SHT31;56704;54.242;12.442;2023-08-24T07:45:30;21.06;85.59
69503;SHT31;56704;54.242;12.442;2023-08-24T07:47:57;21.03;84.92
69503;SHT31;56704;54.242;12.442;2023-08-24T07:50:23;20.86;85.08
69503;SHT31;56704;54.242;12.442;2023-08-24T07:52:50;20.90;85.58
69503;SHT31;56704;54.242;12.442;2023-08-24T07:55:16;21.11;85.22
69503;SHT31;56704;54.242;12.442;2023-08-24T07:57:43;21.10;83.33
69503;SHT31;56704;54.242;12.442;2023-08-24T08:00:12;21.33;83.77
69503;SHT31;56704;54.242;12.442;2023-08-24T08:02:39;21.26;83.15
69503;SHT31;56704;54.242;12.442;2023-08-24T08:05:06;21.19;81.68
69503;SHT31;56704;54.242;12.442;2023-08-24T08:07:33;21.00;81.85
69503;SHT31;56704;54.242;12.442;2023-08-24T08:10:00;20.93;83.10
69503;SHT31;56704;54.242;12.442;2023-08-24T08:12:26;21.00;82.90
69503;SHT31;56704;54.242;12.442;2023-08-24T08:14:53;20.97;81.66
69503;SHT31;56704;54.242;12.442;2023-08-24T08:17:21;20.87;80.37
69503;SHT31;56704;54.242;12.442;2023-08-24T08:19:48;21.00;81.19
69503;SHT31;56704;54.242;12.442;2023-08-24T08:22:15;21.27;81.57
69503;SHT31;56704;54.242;12.442;2023-08-24T08:24:41;21.57;80.32
69503;SHT31;56704;54.242;12.442;2023-08-24T08:27:08;21.61;79.05
69503;SHT31;56704;54.242;12.442;2023-08-24T08:29:35;21.54;78.18
69503;SHT31;56704;54.242;12.442;2023-08-24T08:32:02;21.37;77.08
69503;SHT31;56704;54.242;12.442;2023-08-24T08:34:32;21.34;77.11
69503;SHT31;56704;54.242;12.442;2023-08-24T08:36:58;21.44;78.21
69503;SHT31;56704;54.242;12.442;2023-08-24T08:39:25;21.65;77.14
69503;SHT31;56704;54.242;12.442;2023-08-24T08:41:51;21.86;76.07
69503;SHT31;56704;54.242;12.442;2023-08-24T08:44:19;22.02;75.77
69503;SHT31;56704;54.242;12.442;2023-08-24T08:46:47;22.12;75.36
69503;SHT31;56704;54.242;12.442;2023-08-24T08:49:16;22.06;73.85
69503;SHT31;56704;54.242;12.442;2023-08-24T08:51:46;22.15;73.81
69503;SHT31;56704;54.242;12.442;2023-08-24T08:54:13;22.29;74.63
69503;SHT31;56704;54.242;12.442;2023-08-24T08:56:40;22.45;74.15
69503;SHT31;56704;54.242;12.442;2023-08-24T08:59:08;22.54;73.31
69503;SHT31;56704;54.242;12.442;2023-08-24T09:01:36;22.49;72.62
69503;SHT31;56704;54.242;12.442;2023-08-24T09:04:05;22.52;72.63
69503;SHT31;56704;54.242;12.442;2023-08-24T09:06:33;22.70;71.86
69503;SHT31;56704;54.242;12.442;2023-08-24T09:09:01;22.74;71.05
69503;SHT31;56704;54.242;12.442;2023-08-24T09:11:28;22.74;67.51
69503;SHT31;56704;54.242;12.442;2023-08-24T09:13:54;22.88;68.67
69503;SHT31;56704;54.242;12.442;2023-08-24T09:16:21;22.91;69.39
69503;SHT31;56704;54.242;12.442;2023-08-24T09:18:47;22.87;68.29
69503;SHT31;56704;54.242;12.442;2023-08-24T09:21:15;22.98;69.86
69503;SHT31;56704;54.242;12.442;2023-08-24T09:23:44;22.96;65.43
69503;SHT31;56704;54.242;12.442;2023-08-24T09:26:12;22.71;68.07
69503;SHT31;56704;54.242;12.442;2023-08-24T09:28:42;22.70;67.96
69503;SHT31;56704;54.242;12.442;2023-08-24T09:31:09;22.83;69.61
69503;SHT31;56704;54.242;12.442;2023-08-24T09:33:35;23.01;66.84
69503;SHT31;56704;54.242;12.442;2023-08-24T09:36:05;23.08;68.44
69503;SHT31;56704;54.242;12.442;2023-08-24T09:38:32;23.21;65.51
69503;SHT31;56704;54.242;12.442;2023-08-24T09:41:01;23.41;68.19
69503;SHT31;56704;54.242;12.442;2023-08-24T09:43:30;23.47;64.42
69503;SHT31;56704;54.242;12.442;2023-08-24T09:45:57;23.42;65.60
69503;SHT31;56704;54.242;12.442;2023-08-24T09:48:24;23.59;65.70
69503;SHT31;56704;54.242;12.442;2023-08-24T09:50:51;23.80;66.04
69503;SHT31;56704;54.242;12.442;2023-08-24T09:53:19;24.07;65.97
69503;SHT31;56704;54.242;12.442;2023-08-24T09:55:49;24.34;64.80
69503;SHT31;56704;54.242;12.442;2023-08-24T09:58:19;24.51;63.67
69503;SHT31;56704;54.242;12.442;2023-08-24T10:00:49;24.74;64.07
69503;SHT31;56704;54.242;12.442;2023-08-24T10:03:18;24.90;63.24
69503;SHT31;56704;54.242;12.442;2023-08-24T10:05:50;25.04;63.46
69503;SHT31;56704;54.242;12.442;2023-08-24T10:08:21;25.15;60.80
69503;SHT31;56704;54.242;12.442;2023-08-24T10:10:51;24.65;60.53
69503;SHT31;56704;54.242;12.442;2023-08-24T10:13:24;24.49;61.40
69503;SHT31;56704;54.242;12.442;2023-08-24T10:15:54;24.39;62.02
69503;SHT31;56704;54.242;12.442;2023-08-24T10:18:22;24.60;61.79
69503;SHT31;56704;54.242;12.442;2023-08-24T10:20:50;24.81;60.76
69503;SHT31;56704;54.242;12.442;2023-08-24T10:23:19;25.05;60.78
69503;SHT31;56704;54.242;12.442;2023-08-24T10:25:46;25.31;60.80
69503;SHT31;56704;54.242;12.442;2023-08-24T10:28:14;25.54;60.31
69503;SHT31;56704;54.242;12.442;2023-08-24T10:30:42;25.65;59.58
69503;SHT31;56704;54.242;12.442;2023-08-24T10:33:12;25.83;59.57
69503;SHT31;56704;54.242;12.442;2023-08-24T10:35:40;25.58;56.58
69503;SHT31;56704;54.242;12.442;2023-08-24T10:38:07;25.19;58.35
69503;SHT31;56704;54.242;12.442;2023-08-24T10:40:36;25.33;59.75
69503;SHT31;56704;54.242;12.442;2023-08-24T10:43:05;25.63;59.55
69503;SHT31;56704;54.242;12.442;2023-08-24T10:45:55;25.86;58.12
69503;SHT31;56704;54.242;12.442;2023-08-24T10:48:23;26.05;56.84
69503;SHT31;56704;54.242;12.442;2023-08-24T10:51:17;26.10;56.26
69503;SHT31;56704;54.242;12.442;2023-08-24T10:53:47;26.00;54.68
69503;SHT31;56704;54.242;12.442;2023-08-24T10:56:15;26.21;56.12
69503;SHT31;56704;54.242;12.442;2023-08-24T10:58:42;26.34;55.53
69503;SHT31;56704;54.242;12.442;2023-08-24T11:01:14;26.62;56.53
69503;SHT31;56704;54.242;12.442;2023-08-24T11:03:48;26.99;54.62
69503;SHT31;56704;54.242;12.442;2023-08-24T11:06:19;27.25;52.35
69503;SHT31;56704;54.242;12.442;2023-08-24T11:08:47;27.25;52.67
69503;SHT31;56704;54.242;12.442;2023-08-24T11:11:21;27.26;51.33
69503;SHT31;56704;54.242;12.442;2023-08-24T11:14:15;27.36;52.28
69503;SHT31;56704;54.242;12.442;2023-08-24T11:16:45;27.64;51.45
69503;SHT31;56704;54.242;12.442;2023-08-24T11:19:14;27.90;52.11
69503;SHT31;56704;54.242;12.442;2023-08-24T11:21:42;28.08;48.66
69503;SHT31;56704;54.242;12.442;2023-08-24T11:24:10;28.24;49.57
69503;SHT31;56704;54.242;12.442;2023-08-24T11:26:42;28.28;48.63
69503;SHT31;56704;54.242;12.442;2023-08-24T11:29:09;28.27;47.87
69503;SHT31;56704;54.242;12.442;2023-08-24T11:31:36;28.28;49.92
69503;SHT31;56704;54.242;12.442;2023-08-24T11:34:02;28.55;48.29
69503;SHT31;56704;54.242;12.442;2023-08-24T11:36:31;28.82;47.37
69503;SHT31;56704;54.242;12.442;2023-08-24T11:38:58;28.96;47.99
69503;SHT31;56704;54.242;12.442;2023-08-24T11:41:25;29.14;47.08
69503;SHT31;56704;54.242;12.442;2023-08-24T11:43:59;29.29;47.77
69503;SHT31;56704;54.242;12.442;2023-08-24T11:46:28;29.43;46.45
69503;SHT31;56704;54.242;12.442;2023-08-24T11:48:57;29.51;46.70
69503;SHT31;56704;54.242;12.442;2023-08-24T11:51:24;29.70;46.22
69503;SHT31;56704;54.242;12.442;2023-08-24T11:53:52;29.51;44.45
69503;SHT31;56704;54.242;12.442;2023-08-24T11:56:18;29.57;46.44
69503;SHT31;56704;54.242;12.442;2023-08-24T11:58:48;29.75;46.56
69503;SHT31;56704;54.242;12.442;2023-08-24T12:01:15;29.77;44.50
69503;SHT31;56704;54.242;12.442;2023-08-24T12:03:42;29.57;44.87
69503;SHT31;56704;54.242;12.442;2023-08-24T12:06:10;29.40;45.57
69503;SHT31;56704;54.242;12.442;2023-08-24T12:08:41;29.61;45.66
69503;SHT31;56704;54.242;12.442;2023-08-24T12:11:24;29.75;43.96
69503;SHT31;56704;54.242;12.442;2023-08-24T12:13:53;29.68;43.24
69503;SHT31;56704;54.242;12.442;2023-08-24T12:16:21;29.82;43.99
69503;SHT31;56704;54.242;12.442;2023-08-24T12:18:50;30.01;42.77
69503;SHT31;56704;54.242;12.442;2023-08-24T12:21:17;30.23;43.25
69503;SHT31;56704;54.242;12.442;2023-08-24T12:23:44;30.69;41.96
69503;SHT31;56704;54.242;12.442;2023-08-24T12:26:19;31.21;41.86
69503;SHT31;56704;54.242;12.442;2023-08-24T12:28:49;31.42;40.75
69503;SHT31;56704;54.242;12.442;2023-08-24T12:31:17;32.05;40.03
69503;SHT31;56704;54.242;12.442;2023-08-24T12:33:43;31.86;39.46
69503;SHT31;56704;54.242;12.442;2023-08-24T12:36:11;32.43;39.04
69503;SHT31;56704;54.242;12.442;2023-08-24T12:38:37;32.90;36.88
69503;SHT31;56704;54.242;12.442;2023-08-24T12:41:07;32.86;37.46
69503;SHT31;56704;54.242;12.442;2023-08-24T12:43:34;32.84;37.85
69503;SHT31;56704;54.242;12.442;2023-08-24T12:46:01;33.11;36.77
69503;SHT31;56704;54.242;12.442;2023-08-24T12:48:28;33.35;37.08
69503;SHT31;56704;54.242;12.442;2023-08-24T12:50:54;33.22;35.91
69503;SHT31;56704;54.242;12.442;2023-08-24T12:53:21;33.38;36.92
69503;SHT31;56704;54.242;12.442;2023-08-24T12:55:48;33.28;35.90
69503;SHT31;56704;54.242;12.442;2023-08-24T12:58:14;33.05;35.43
69503;SHT31;56704;54.242;12.442;2023-08-24T13:00:42;33.37;34.83
69503;SHT31;56704;54.242;12.442;2023-08-24T13:03:09;32.78;36.30
69503;SHT31;56704;54.242;12.442;2023-08-24T13:05:36;32.30;35.22
69503;SHT31;56704;54.242;12.442;2023-08-24T13:08:03;32.10;36.13
69503;SHT31;56704;54.242;12.442;2023-08-24T13:10:30;31.89;37.05
69503;SHT31;56704;54.242;12.442;2023-08-24T13:12:56;32.16;38.73
69503;SHT31;56704;54.242;12.442;2023-08-24T13:15:23;32.46;36.28
69503;SHT31;56704;54.242;12.442;2023-08-24T13:17:51;32.84;35.55
69503;SHT31;56704;54.242;12.442;2023-08-24T13:20:17;33.11;35.49
69503;SHT31;56704;54.242;12.442;2023-08-24T13:22:44;33.54;35.75
69503;SHT31;56704;54.242;12.442;2023-08-24T13:25:11;33.99;34.53
69503;SHT31;56704;54.242;12.442;2023-08-24T13:27:37;34.50;33.27
69503;SHT31;56704;54.242;12.442;2023-08-24T13:30:05;34.71;31.73
69503;SHT31;56704;54.242;12.442;2023-08-24T13:32:32;34.61;32.08
69503;SHT31;56704;54.242;12.442;2023-08-24T13:35:01;34.78;31.70
69503;SHT31;56704;54.242;12.442;2023-08-24T13:37:28;34.76;31.45
69503;SHT31;56704;54.242;12.442;2023-08-24T13:39:54;34.40;32.84
69503;SHT31;56704;54.242;12.442;2023-08-24T13:42:21;33.98;32.41
69503;SHT31;56704;54.242;12.442;2023-08-24T13:44:48;33.42;34.10
69503;SHT31;56704;54.242;12.442;2023-08-24T13:47:14;33.08;34.30
69503;SHT31;56704;54.242;12.442;2023-08-24T13:49:41;32.64;34.89
69503;SHT31;56704;54.242;12.442;2023-08-24T13:52:09;32.10;34.68
69503;SHT31;56704;54.242;12.442;2023-08-24T13:54:35;31.14;34.09
69503;SHT31;56704;54.242;12.442;2023-08-24T13:57:02;30.52;36.30
69503;SHT31;56704;54.242;12.442;2023-08-24T13:59:32;30.09;37.41
69503;SHT31;56704;54.242;12.442;2023-08-24T14:01:58;29.91;37.28
69503;SHT31;56704;54.242;12.442;2023-08-24T14:04:25;29.91;38.31
69503;SHT31;56704;54.242;12.442;2023-08-24T14:06:51;29.97;38.01
69503;SHT31;56704;54.242;12.442;2023-08-24T14:09:19;30.18;37.88
69503;SHT31;56704;54.242;12.442;2023-08-24T14:11:46;30.59;37.60
69503;SHT31;56704;54.242;12.442;2023-08-24T14:14:13;31.14;36.02
69503;SHT31;56704;54.242;12.442;2023-08-24T14:16:40;31.62;35.20
69503;SHT31;56704;54.242;12.442;2023-08-24T14:19:06;31.52;35.80
69503;SHT31;56704;54.242;12.442;2023-08-24T14:21:34;31.35;35.13
69503;SHT31;56704;54.242;12.442;2023-08-24T14:24:00;31.17;36.29
69503;SHT31;56704;54.242;12.442;2023-08-24T14:26:29;30.90;36.64
69503;SHT31;56704;54.242;12.442;2023-08-24T14:28:57;30.95;37.03
69503;SHT31;56704;54.242;12.442;2023-08-24T14:31:26;30.90;36.61
69503;SHT31;56704;54.242;12.442;2023-08-24T14:33:53;30.37;38.23
69503;SHT31;56704;54.242;12.442;2023-08-24T14:36:19;29.92;39.31
69503;SHT31;56704;54.242;12.442;2023-08-24T14:38:47;29.62;39.73
69503;SHT31;56704;54.242;12.442;2023-08-24T14:41:14;29.13;39.60
69503;SHT31;56704;54.242;12.442;2023-08-24T14:43:42;28.84;40.70
69503;SHT31;56704;54.242;12.442;2023-08-24T14:46:09;29.31;40.19
69503;SHT31;56704;54.242;12.442;2023-08-24T14:48:38;30.15;39.44
69503;SHT31;56704;54.242;12.442;2023-08-24T14:51:06;30.70;37.30
69503;SHT31;56704;54.242;12.442;2023-08-24T14:53:33;31.10;36.14
69503;SHT31;56704;54.242;12.442;2023-08-24T14:56:00;31.01;35.67
69503;SHT31;56704;54.242;12.442;2023-08-24T14:58:27;30.69;36.41
69503;SHT31;56704;54.242;12.442;2023-08-24T15:00:57;30.32;36.48
69503;SHT31;56704;54.242;12.442;2023-08-24T15:03:24;29.88;37.79
69503;SHT31;56704;54.242;12.442;2023-08-24T15:05:58;29.62;39.01
69503;SHT31;56704;54.242;12.442;2023-08-24T15:08:25;29.62;38.64
69503;SHT31;56704;54.242;12.442;2023-08-24T15:10:54;29.71;38.11
69503;SHT31;56704;54.242;12.442;2023-08-24T15:13:21;29.81;39.01
69503;SHT31;56704;54.242;12.442;2023-08-24T15:15:48;29.98;38.55
69503;SHT31;56704;54.242;12.442;2023-08-24T15:18:15;29.91;37.78